createdAt,value
2019-04-11T00:00:31.310Z,9.20
2019-04-11T00:03:00.812Z,9.68
2019-04-11T00:05:30.705Z,8.80
2019-04-11T00:08:00.079Z,9.80
2019-04-11T00:10:29.249Z,13.43
2019-04-11T00:12:59.081Z,9.55
2019-04-11T00:15:28.786Z,10.82
2019-04-11T00:17:58.519Z,9.60
2019-04-11T00:20:28.985Z,10.03
2019-04-11T00:22:58.001Z,8.83
2019-04-11T00:25:27.481Z,10.80
2019-04-11T00:27:57.276Z,10.23
2019-04-11T00:30:26.277Z,9.70
2019-04-11T00:32:56.061Z,10.32
2019-04-11T00:35:25.904Z,10.93
2019-04-11T00:37:55.363Z,12.23
2019-04-11T00:40:24.872Z,9.88
2019-04-11T00:42:54.701Z,9.05
2019-04-11T00:45:23.493Z,13.32
2019-04-11T00:47:53.179Z,10.00
2019-04-11T00:50:23.246Z,11.50
2019-04-11T00:52:52.167Z,13.95
2019-04-11T00:55:21.752Z,10.28
2019-04-11T00:57:51.032Z,8.73
2019-04-11T01:00:20.882Z,10.43
2019-04-11T01:02:49.666Z,11.45
2019-04-11T01:05:18.664Z,14.35
2019-04-11T01:07:47.240Z,11.12
2019-04-11T01:10:16.219Z,9.10
2019-04-11T01:12:44.909Z,14.20
2019-04-11T01:15:15.725Z,10.10
2019-04-11T01:17:45.372Z,11.22
2019-04-11T01:20:15.376Z,11.75
2019-04-11T01:22:44.543Z,10.45
2019-04-11T01:25:13.652Z,12.28
2019-04-11T01:27:43.874Z,11.10
2019-04-11T01:30:15.832Z,10.53
2019-04-11T01:32:44.559Z,11.95
2019-04-11T01:35:13.142Z,9.65
2019-04-11T01:37:41.969Z,11.43
2019-04-11T01:40:11.796Z,11.63
2019-04-11T01:42:41.660Z,16.80
2019-04-11T01:45:12.140Z,13.05
2019-04-11T01:47:48.299Z,9.88
2019-04-11T01:50:18.959Z,10.13
2019-04-11T01:52:48.805Z,10.53
2019-04-11T01:55:18.527Z,10.80
2019-04-11T01:57:47.144Z,9.83
2019-04-11T02:00:24.147Z,10.93
2019-04-11T02:02:54.927Z,11.50
2019-04-11T02:05:27.154Z,11.08
2019-04-11T02:07:56.166Z,10.38
2019-04-11T02:10:24.742Z,11.53
2019-04-11T02:12:53.536Z,11.50
2019-04-11T02:15:24.091Z,11.12
2019-04-11T02:17:53.603Z,10.93
2019-04-11T02:20:23.009Z,12.53
2019-04-11T02:22:54.861Z,13.13
2019-04-11T02:25:25.604Z,11.78
2019-04-11T02:27:54.358Z,12.55
2019-04-11T02:30:25.396Z,10.93
2019-04-11T02:32:55.955Z,15.15
2019-04-11T02:35:24.865Z,10.83
2019-04-11T02:37:54.947Z,10.13
2019-04-11T02:40:24.575Z,10.90
2019-04-11T02:42:54.857Z,11.30
2019-04-11T02:45:36.275Z,11.90
2019-04-11T02:47:56.418Z,15.90
2019-04-11T02:50:26.535Z,11.80
2019-04-11T02:52:56.637Z,10.48
2019-04-11T02:55:25.427Z,13.20
2019-04-11T02:57:56.678Z,12.70
2019-04-11T03:00:26.680Z,13.15
2019-04-11T03:02:56.914Z,16.82
2019-04-11T03:05:26.895Z,12.70
2019-04-11T03:07:56.416Z,13.43
2019-04-11T03:10:27.123Z,12.33
2019-04-11T03:12:58.884Z,8.68
2019-04-11T03:15:43.122Z,11.22
2019-04-11T03:18:02.285Z,9.10
2019-04-11T03:20:34.487Z,10.30
2019-04-11T03:23:04.871Z,11.40
2019-04-11T03:25:30.649Z,10.53
2019-04-11T03:28:01.584Z,10.67
2019-04-11T03:30:46.458Z,12.30
2019-04-11T03:33:58.219Z,13.65
2019-04-11T03:36:27.600Z,9.65
2019-04-11T03:38:27.674Z,12.35
2019-04-11T03:40:50.458Z,11.43
2019-04-11T03:43:16.450Z,11.73
2019-04-11T03:45:48.054Z,11.53
2019-04-11T03:48:21.876Z,12.58
2019-04-11T03:50:39.270Z,11.48
2019-04-11T03:53:10.993Z,14.30
2019-04-11T03:55:39.201Z,13.15
2019-04-11T03:58:08.967Z,11.33
2019-04-11T04:00:42.513Z,11.43
2019-04-11T04:03:11.203Z,13.87
2019-04-11T04:05:41.982Z,13.00
2019-04-11T04:08:10.869Z,11.33
2019-04-11T04:10:42.275Z,14.15
2019-04-11T04:13:16.837Z,11.78
2019-04-11T04:16:00.210Z,15.13
2019-04-11T04:18:29.891Z,13.65
2019-04-11T04:21:09.165Z,13.28
2019-04-11T04:23:39.123Z,12.50
2019-04-11T04:26:11.611Z,12.47
2019-04-11T04:28:40.651Z,15.38
2019-04-11T04:31:11.222Z,12.18
2019-04-11T04:33:40.049Z,12.35
2019-04-11T04:36:11.079Z,15.33
2019-04-11T04:38:41.465Z,14.67
2019-04-11T04:41:22.465Z,13.53
2019-04-11T04:43:44.319Z,11.73
2019-04-11T04:46:29.966Z,12.13
2019-04-11T04:48:45.349Z,13.75
2019-04-11T04:51:16.181Z,14.50
2019-04-11T04:53:45.226Z,14.78
2019-04-11T04:56:16.745Z,17.62
2019-04-11T04:58:46.522Z,17.27
2019-04-11T05:01:15.634Z,14.60
2019-04-11T05:03:46.641Z,15.85
2019-04-11T05:06:16.342Z,15.93
2019-04-11T05:08:45.267Z,13.55
2019-04-11T05:11:14.130Z,16.73
2019-04-11T05:13:46.320Z,17.10
2019-04-11T05:16:17.554Z,12.80
2019-04-11T05:18:43.957Z,17.77
2019-04-11T05:21:12.907Z,14.55
2019-04-11T05:23:41.787Z,13.72
2019-04-11T05:26:10.969Z,13.77
2019-04-11T05:28:39.591Z,12.63
2019-04-11T05:31:08.180Z,13.50
2019-04-11T05:33:37.173Z,13.28
2019-04-11T05:36:06.002Z,13.30
2019-04-11T05:38:35.949Z,13.65
2019-04-11T05:41:09.661Z,14.67
2019-04-11T05:43:37.330Z,11.78
2019-04-11T05:46:21.921Z,11.28
2019-04-11T05:48:57.848Z,11.18
2019-04-11T05:51:23.852Z,16.67
2019-04-11T05:53:55.545Z,11.55
2019-04-11T05:56:26.088Z,12.83
2019-04-11T05:58:56.326Z,13.30
2019-04-11T06:01:36.308Z,17.73
2019-04-11T06:04:16.129Z,12.30
2019-04-11T06:06:46.554Z,13.25
2019-04-11T06:09:16.886Z,11.43
2019-04-11T06:11:55.766Z,17.32
2019-04-11T06:14:25.163Z,12.33
2019-04-11T06:16:56.205Z,13.93
2019-04-11T06:19:28.232Z,12.18
2019-04-11T06:22:01.522Z,12.55
2019-04-11T06:24:48.567Z,11.43
2019-04-11T06:27:22.152Z,14.93
2019-04-11T06:30:09.564Z,10.37
2019-04-11T06:32:49.188Z,10.93
2019-04-11T06:35:37.847Z,11.78
2019-04-11T06:38:10.826Z,11.83
2019-04-11T06:40:59.982Z,9.50
2019-04-11T06:43:34.195Z,12.00
2019-04-11T06:46:16.714Z,13.60
2019-04-11T06:49:00.225Z,11.08
2019-04-11T06:51:30.496Z,11.43
2019-04-11T06:54:18.962Z,13.75
2019-04-11T06:56:50.586Z,11.60
2019-04-11T06:59:24.041Z,10.40
2019-04-11T07:02:07.553Z,12.84
2019-04-11T07:04:37.772Z,11.60
2019-04-11T07:07:09.901Z,12.75
2019-04-11T07:09:45.013Z,11.57
2019-04-11T07:12:18.159Z,11.63
2019-04-11T07:14:48.877Z,13.70
2019-04-11T07:17:37.028Z,12.00
2019-04-11T07:20:27.349Z,12.23
2019-04-11T07:23:15.645Z,13.95
2019-04-11T07:25:53.813Z,12.55
2019-04-11T07:28:25.687Z,12.75
2019-04-11T07:31:07.972Z,13.68
2019-04-11T07:33:54.655Z,11.15
2019-04-11T07:36:41.385Z,13.83
2019-04-11T07:39:14.541Z,11.60
2019-04-11T07:41:47.981Z,13.37
2019-04-11T07:44:22.357Z,13.50
2019-04-11T07:46:53.625Z,14.45
2019-04-11T07:49:39.080Z,13.25
2019-04-11T07:52:15.546Z,17.52
2019-04-11T07:54:45.683Z,13.83
2019-04-11T07:57:32.423Z,12.47
2019-04-11T08:00:03.754Z,11.48
2019-04-11T08:02:53.294Z,12.55
2019-04-11T08:05:51.513Z,13.68
2019-04-11T08:08:27.938Z,13.85
2019-04-11T08:10:58.258Z,14.00
2019-04-11T08:13:36.724Z,14.60
2019-04-11T08:16:24.050Z,13.75
2019-04-11T08:19:01.313Z,16.32
2019-04-11T08:21:47.985Z,16.73
2019-04-11T08:24:34.354Z,12.78
2019-04-11T08:27:09.398Z,11.38
2019-04-11T08:32:09.653Z,14.43
2019-04-11T08:34:39.991Z,15.48
2019-04-11T08:37:13.874Z,13.65
2019-04-11T08:39:49.091Z,15.25
2019-04-11T08:42:25.444Z,14.97
2019-04-11T08:44:54.331Z,14.10
2019-04-11T08:47:22.966Z,12.98
2019-04-11T08:49:52.266Z,16.73
2019-04-11T08:52:24.331Z,15.03
2019-04-11T08:55:00.269Z,13.85
2019-04-11T08:57:41.569Z,12.65
2019-04-11T09:00:15.675Z,12.73
2019-04-11T09:02:44.961Z,13.77
2019-04-11T09:05:22.716Z,15.23
2019-04-11T09:08:00.141Z,18.92
2019-04-11T09:10:50.745Z,18.53
2019-04-11T09:13:28.160Z,15.30
2019-04-11T09:16:01.450Z,14.65
2019-04-11T09:18:32.356Z,13.58
2019-04-11T09:21:20.281Z,15.08
2019-04-11T09:23:50.119Z,14.83
2019-04-11T09:26:29.441Z,13.03
2019-04-11T09:28:58.124Z,13.38
2019-04-11T09:31:35.855Z,14.63
2019-04-11T09:34:09.260Z,13.53
2019-04-11T09:36:45.462Z,13.97
2019-04-11T09:39:33.074Z,16.17
2019-04-11T09:42:13.402Z,14.60
2019-04-11T09:44:49.332Z,16.45
2019-04-11T09:47:28.919Z,13.90
2019-04-11T09:50:18.953Z,13.65
2019-04-11T09:52:49.587Z,13.25
2019-04-11T09:55:29.111Z,13.85
2019-04-11T09:58:01.212Z,11.83
2019-04-11T10:00:39.124Z,13.45
2019-04-11T10:03:15.887Z,13.93
2019-04-11T10:05:50.294Z,12.85
2019-04-11T10:08:22.499Z,14.35
2019-04-11T10:11:11.185Z,12.75
2019-04-11T10:13:51.194Z,13.05
2019-04-11T10:16:26.297Z,14.75
2019-04-11T10:18:57.794Z,13.10
2019-04-11T10:21:29.006Z,12.90
2019-04-11T10:24:05.244Z,15.78
2019-04-11T10:26:36.140Z,17.02
2019-04-11T10:29:06.529Z,13.40
2019-04-11T10:31:36.814Z,18.48
2019-04-11T10:34:23.711Z,13.62
2019-04-11T10:36:54.018Z,12.28
2019-04-11T10:39:24.975Z,12.95
2019-04-11T10:41:56.414Z,14.63
2019-04-11T10:44:33.984Z,14.60
2019-04-11T10:47:14.548Z,12.60
2019-04-11T10:49:52.614Z,13.50
2019-04-11T10:52:26.717Z,13.05
2019-04-11T10:55:05.189Z,16.02
2019-04-11T10:57:38.618Z,16.60
2019-04-11T11:00:20.919Z,13.88
2019-04-11T11:03:11.696Z,14.35
2019-04-11T11:05:49.339Z,14.20
2019-04-11T11:08:19.608Z,13.83
2019-04-11T11:10:50.022Z,13.57
2019-04-11T11:13:45.797Z,14.73
2019-04-11T11:16:15.974Z,15.63
2019-04-11T11:19:24.589Z,13.25
2019-04-11T11:21:35.573Z,12.90
2019-04-11T11:24:22.107Z,13.48
2019-04-11T11:26:53.672Z,14.13
2019-04-11T11:29:32.420Z,14.30
2019-04-11T11:32:11.178Z,14.27
2019-04-11T11:34:42.245Z,14.07
2019-04-11T11:37:13.133Z,14.23
2019-04-11T11:40:10.566Z,15.65
2019-04-11T11:42:54.440Z,14.15
2019-04-11T11:45:29.810Z,14.47
2019-04-11T11:48:14.998Z,14.25
2019-04-11T11:50:42.717Z,13.40
2019-04-11T11:53:32.845Z,13.23
2019-04-11T11:56:05.396Z,15.20
2019-04-11T11:58:42.344Z,14.90
2019-04-11T12:01:11.684Z,13.38
2019-04-11T12:03:50.758Z,12.33
2019-04-11T12:06:25.233Z,14.20
2019-04-11T12:09:12.109Z,14.85
2019-04-11T12:11:43.354Z,13.98
2019-04-11T12:14:32.753Z,15.53
2019-04-11T12:17:06.799Z,12.82
2019-04-11T12:19:47.624Z,12.85
2019-04-11T12:22:08.429Z,14.03
2019-04-11T12:24:43.315Z,14.65
2019-04-11T12:27:16.346Z,14.23
2019-04-11T12:30:05.842Z,14.35
2019-04-11T12:32:36.830Z,13.05
2019-04-11T12:35:26.293Z,14.15
2019-04-11T12:37:57.895Z,14.18
2019-04-11T12:40:28.205Z,14.65
2019-04-11T12:42:59.331Z,15.70
2019-04-11T12:45:35.256Z,19.32
2019-04-11T12:48:04.427Z,15.13
2019-04-11T12:50:52.672Z,16.07
2019-04-11T12:53:22.833Z,15.93
2019-04-11T12:55:53.045Z,15.77
2019-04-11T12:58:29.627Z,14.15
2019-04-11T13:01:16.462Z,15.90
2019-04-11T13:03:46.845Z,16.30
2019-04-11T13:06:34.808Z,17.55
2019-04-11T13:09:10.086Z,14.63
2019-04-11T13:11:43.282Z,15.60
2019-04-11T13:17:01.656Z,14.33
2019-04-11T13:19:43.541Z,14.05
2019-04-11T13:22:13.789Z,15.23
2019-04-11T13:24:47.042Z,16.93
2019-04-11T13:27:17.363Z,15.93
2019-04-11T13:30:04.806Z,14.60
2019-04-11T13:32:45.800Z,18.82
2019-04-11T13:35:16.302Z,14.25
2019-04-11T13:38:02.899Z,14.60
2019-04-11T13:40:46.275Z,15.33
2019-04-11T13:43:18.091Z,16.87
2019-04-11T13:45:55.310Z,14.93
2019-04-11T13:48:44.264Z,14.93
2019-04-11T13:51:32.095Z,17.55
2019-04-11T13:54:19.081Z,17.37
2019-04-11T13:56:55.174Z,16.32
2019-04-11T13:59:34.784Z,15.10
2019-04-11T14:02:17.100Z,15.20
2019-04-11T14:04:50.796Z,16.42
2019-04-11T14:07:27.044Z,15.63
2019-04-11T14:09:59.114Z,16.45
2019-04-11T14:12:33.332Z,16.87
2019-04-11T14:17:35.058Z,15.40
2019-04-11T14:20:11.570Z,15.10
2019-04-11T14:22:43.471Z,15.83
2019-04-11T14:25:16.552Z,16.07
2019-04-11T14:27:46.934Z,16.00
2019-04-11T14:30:32.691Z,16.07
2019-04-11T14:33:01.552Z,13.50
2019-04-11T14:35:40.811Z,15.03
2019-04-11T14:38:11.545Z,15.28
2019-04-11T14:41:01.990Z,16.90
2019-04-11T14:43:32.388Z,15.60
2019-04-11T14:46:08.590Z,16.37
2019-04-11T14:48:42.006Z,15.63
2019-04-11T14:51:15.950Z,17.12
2019-04-11T14:53:57.218Z,16.40
2019-04-11T14:56:30.445Z,15.58
2019-04-11T14:59:06.898Z,15.63
2019-04-11T15:01:35.747Z,17.55
2019-04-11T15:04:21.323Z,15.60
2019-04-11T15:07:00.293Z,17.85
2019-04-11T15:09:48.855Z,17.97
2019-04-11T15:12:19.620Z,14.58
2019-04-11T15:14:51.812Z,16.48
2019-04-11T15:17:24.325Z,21.37
2019-04-11T15:19:53.964Z,16.48
2019-04-11T15:22:30.236Z,13.93
2019-04-11T15:25:00.688Z,13.62
2019-04-11T15:27:38.554Z,15.13
2019-04-11T15:30:11.485Z,15.53
2019-04-11T15:32:47.716Z,14.65
2019-04-11T15:35:16.703Z,15.90
2019-04-11T15:38:03.401Z,20.88
2019-04-11T15:40:32.016Z,18.70
2019-04-11T15:43:02.240Z,16.02
2019-04-11T15:45:47.652Z,15.83
2019-04-11T15:48:23.575Z,15.43
2019-04-11T15:51:10.081Z,15.80
2019-04-11T15:53:46.488Z,15.00
2019-04-11T15:56:33.230Z,16.93
2019-04-11T15:59:06.483Z,16.07
2019-04-11T16:01:53.089Z,16.03
2019-04-11T16:04:29.572Z,13.85
2019-04-11T16:07:12.696Z,16.85
2019-04-11T16:09:44.115Z,14.23
2019-04-11T16:12:16.344Z,14.73
2019-04-11T16:14:45.008Z,13.78
2019-04-11T16:17:31.492Z,14.35
2019-04-11T16:20:01.393Z,18.42
2019-04-11T16:22:43.965Z,15.20
2019-04-11T16:25:14.517Z,18.93
2019-04-11T16:28:00.764Z,13.75
2019-04-11T16:30:31.031Z,15.90
2019-04-11T16:33:07.094Z,14.15
2019-04-11T16:35:43.377Z,23.25
2019-04-11T16:38:13.599Z,15.40
2019-04-11T16:41:00.233Z,13.80
2019-04-11T16:43:29.116Z,14.78
2019-04-11T16:46:02.167Z,17.75
2019-04-11T16:48:30.893Z,18.87
2019-04-11T16:50:59.648Z,14.60
2019-04-11T16:53:28.298Z,14.10
2019-04-11T16:55:56.894Z,13.88
2019-04-11T16:58:25.825Z,12.85
2019-04-11T17:00:54.466Z,12.27
2019-04-11T17:03:25.146Z,14.07
2019-04-11T17:06:06.896Z,13.22
2019-04-11T17:08:51.602Z,13.15
2019-04-11T17:11:20.915Z,14.87
2019-04-11T17:13:49.512Z,13.48
2019-04-11T17:16:18.403Z,15.25
2019-04-11T17:18:47.177Z,13.72
2019-04-11T17:21:16.030Z,13.55
2019-04-11T17:23:47.002Z,16.45
2019-04-11T17:26:15.074Z,14.20
2019-04-11T17:28:43.823Z,14.70
2019-04-11T17:31:13.090Z,13.67
2019-04-11T17:33:41.671Z,12.40
2019-04-11T17:36:10.243Z,14.40
2019-04-11T17:38:39.297Z,13.60
2019-04-11T17:41:10.890Z,13.18
2019-04-11T17:43:38.245Z,12.70
2019-04-11T17:46:07.065Z,14.23
2019-04-11T17:48:36.020Z,12.73
2019-04-11T17:51:05.652Z,14.13
2019-04-11T17:53:34.489Z,12.03
2019-04-11T17:56:03.394Z,13.78
2019-04-11T17:58:31.986Z,15.35
2019-04-11T18:01:05.157Z,16.40
2019-04-11T18:03:32.763Z,12.13
2019-04-11T18:06:01.416Z,14.20
2019-04-11T18:08:30.010Z,13.35
2019-04-11T18:10:58.701Z,12.98
2019-04-11T18:13:30.602Z,12.90
2019-04-11T18:16:00.832Z,12.88
2019-04-11T18:18:28.005Z,15.45
2019-04-11T18:20:56.614Z,13.88
2019-04-11T18:23:25.385Z,15.03
2019-04-11T18:25:54.507Z,15.68
2019-04-11T18:28:23.282Z,14.38
2019-04-11T18:30:54.010Z,16.05
2019-04-11T18:33:23.715Z,15.27
2019-04-11T18:35:53.934Z,14.68
2019-04-11T18:38:22.989Z,14.60
2019-04-11T18:40:51.694Z,14.07
2019-04-11T18:43:20.341Z,12.33
2019-04-11T18:45:48.924Z,12.40
2019-04-11T18:48:17.778Z,13.40
2019-04-11T18:50:46.493Z,12.43
2019-04-11T18:53:15.396Z,13.03
2019-04-11T18:55:44.157Z,12.93
2019-04-11T18:58:13.109Z,13.90
2019-04-11T19:00:42.359Z,11.60
2019-04-11T19:03:11.186Z,12.18
2019-04-11T19:05:42.794Z,14.15
2019-04-11T19:08:12.859Z,13.70
2019-04-11T19:10:42.883Z,18.98
2019-04-11T19:13:12.082Z,15.50
2019-04-11T19:15:41.086Z,12.95
2019-04-11T19:18:09.719Z,15.20
2019-04-11T19:20:38.654Z,13.43
2019-04-11T19:23:07.950Z,11.73
2019-04-11T19:25:37.399Z,12.07
2019-04-11T19:28:06.150Z,14.40
2019-04-11T19:30:34.769Z,11.78
2019-04-11T19:33:03.473Z,12.23
2019-04-11T19:35:32.529Z,11.83
2019-04-11T19:38:01.626Z,11.27
2019-04-11T19:40:30.520Z,12.78
2019-04-11T19:42:59.256Z,11.43
2019-04-11T19:45:27.868Z,11.83
2019-04-11T19:47:56.557Z,11.35
2019-04-11T19:50:28.749Z,13.35
2019-04-11T19:52:55.973Z,11.48
2019-04-11T19:55:26.284Z,13.03
2019-04-11T19:57:55.705Z,12.18
2019-04-11T20:00:25.049Z,11.20
2019-04-11T20:02:54.118Z,14.43
2019-04-11T20:05:23.448Z,11.88
2019-04-11T20:07:52.024Z,11.83
2019-04-11T20:10:21.057Z,11.85
2019-04-11T20:12:49.906Z,11.93
2019-04-11T20:15:18.562Z,12.90
2019-04-11T20:17:51.079Z,12.63
2019-04-11T20:20:18.158Z,15.08
2019-04-11T20:22:58.350Z,11.12
2019-04-11T20:25:17.471Z,11.00
2019-04-11T20:27:50.252Z,12.73
2019-04-11T20:30:16.920Z,12.07
2019-04-11T20:32:45.511Z,10.35
2019-04-11T20:35:14.111Z,10.60
2019-04-11T20:37:44.713Z,11.73
2019-04-11T20:40:17.327Z,10.55
2019-04-11T20:42:43.867Z,13.00
2019-04-11T20:45:12.883Z,12.20
2019-04-11T20:47:42.803Z,11.27
2019-04-11T20:50:11.382Z,11.30
2019-04-11T20:52:39.959Z,10.43
2019-04-11T20:55:09.771Z,12.90
2019-04-11T20:57:40.429Z,12.88
2019-04-11T21:00:12.422Z,11.80
2019-04-11T21:02:41.317Z,13.98
2019-04-11T21:05:11.354Z,12.70
2019-04-11T21:07:40.035Z,12.55
2019-04-11T21:10:08.911Z,12.53
2019-04-11T21:12:37.996Z,14.43
2019-04-11T21:15:08.495Z,11.20
2019-04-11T21:17:37.081Z,15.25
2019-04-11T21:20:07.227Z,12.03
2019-04-11T21:22:35.909Z,15.40
2019-04-11T21:25:06.019Z,13.08
2019-04-11T21:27:34.585Z,12.18
2019-04-11T21:30:03.837Z,13.67
2019-04-11T21:32:32.694Z,15.03
2019-04-11T21:35:02.348Z,12.95
2019-04-11T21:37:31.743Z,12.37
2019-04-11T21:40:00.449Z,11.33
2019-04-11T21:42:29.157Z,10.95
2019-04-11T21:44:58.490Z,10.93
2019-04-11T21:47:27.738Z,10.82
2019-04-11T21:49:57.014Z,10.48
2019-04-11T21:52:26.079Z,14.33
2019-04-11T21:54:54.733Z,11.75
2019-04-11T21:57:23.673Z,10.88
2019-04-11T21:59:52.557Z,13.87
2019-04-11T22:02:24.012Z,13.22
2019-04-11T22:04:51.555Z,11.08
2019-04-11T22:07:20.512Z,13.18
2019-04-11T22:09:49.292Z,10.75
2019-04-11T22:12:18.323Z,15.58
2019-04-11T22:14:46.903Z,11.43
2019-04-11T22:17:16.154Z,9.58
2019-04-11T22:19:46.556Z,12.18
2019-04-11T22:22:15.163Z,10.18
2019-04-11T22:24:43.824Z,11.38
2019-04-11T22:27:12.403Z,11.03
2019-04-11T22:29:41.008Z,10.65
2019-04-11T22:32:09.581Z,12.63
2019-04-11T22:34:45.570Z,10.35
2019-04-11T22:37:14.216Z,11.40
2019-04-11T22:39:42.843Z,11.80
2019-04-11T22:42:11.656Z,10.93
2019-04-11T22:44:41.160Z,11.28
2019-04-11T22:47:09.764Z,11.03
2019-04-11T22:49:39.371Z,9.37
2019-04-11T22:52:11.310Z,9.18
2019-04-11T22:54:41.159Z,10.10
2019-04-11T22:57:12.215Z,9.93
2019-04-11T22:59:44.028Z,10.18
2019-04-11T23:02:17.070Z,12.30
2019-04-11T23:04:47.159Z,9.73
2019-04-11T23:07:17.923Z,10.63
2019-04-11T23:09:48.781Z,9.43
2019-04-11T23:12:16.805Z,9.47
2019-04-11T23:14:45.801Z,9.28
2019-04-11T23:17:14.901Z,10.15
2019-04-11T23:19:44.099Z,8.78
2019-04-11T23:22:13.334Z,9.27
2019-04-11T23:24:42.274Z,9.75
2019-04-11T23:27:11.065Z,9.63
2019-04-11T23:29:39.811Z,10.03
2019-04-11T23:32:08.464Z,9.00
2019-04-11T23:34:37.350Z,7.87
2019-04-11T23:37:05.958Z,8.18
2019-04-11T23:39:34.591Z,8.73
2019-04-11T23:42:03.533Z,8.20
2019-04-11T23:44:32.292Z,8.35
2019-04-11T23:47:00.856Z,8.38
2019-04-11T23:49:29.693Z,9.08
2019-04-11T23:51:58.408Z,7.53
2019-04-11T23:54:29.187Z,10.18
2019-04-11T23:57:00.535Z,8.35
2019-04-11T23:59:32.161Z,7.95
